Time;durP1;ratioP1;P1;durP2;ratioP2;P2;SDS_P1;SDS_P2;PMS_P1;PMS_P2;Temp;Humidity;BMP_temperature;BMP_pressure;BME280_temperature;BME280_humidity;BME280_pressure;Samples;Min_cycle;Max_cycle;Signal;HPM_P1;HPM_P2
2022/04/25 00:00:16;;;;;;;16.90;10.57;;;;;;;;;;5048772;28;20400;-70
2022/04/25 00:02:42;;;;;;;19.10;12.13;;;;;;;;;;5054978;28;20048;-69
2022/04/25 00:05:08;;;;;;;17.33;10.63;;;;;;;;;;5067013;28;20093;-70
2022/04/25 00:07:34;;;;;;;18.80;11.10;;;;;;;;;;5034100;28;20224;-70
2022/04/25 00:10:01;;;;;;;21.83;13.05;;;;;;;;;;5050613;28;20037;-70
2022/04/25 00:12:28;;;;;;;18.15;11.30;;;;;;;;;;5046087;28;20097;-69
2022/04/25 00:14:54;;;;;;;20.92;12.25;;;;;;;;;;5026624;28;20045;-69
2022/04/25 00:17:20;;;;;;;19.20;11.05;;;;;;;;;;5048891;28;20067;-69
2022/04/25 00:19:46;;;;;;;17.88;12.20;;;;;;;;;;5053425;28;20131;-70
2022/04/25 00:22:12;;;;;;;23.35;13.13;;;;;;;;;;5065854;28;20472;-69
2022/04/25 00:24:38;;;;;;;23.70;13.85;;;;;;;;;;5031975;28;20052;-69
2022/04/25 00:27:04;;;;;;;22.95;13.93;;;;;;;;;;5048481;28;20565;-69
2022/04/25 00:29:30;;;;;;;22.92;12.85;;;;;;;;;;5047855;28;20153;-69
2022/04/25 00:31:56;;;;;;;23.85;13.02;;;;;;;;;;5063588;28;20106;-70
2022/04/25 00:34:22;;;;;;;21.90;13.32;;;;;;;;;;5067668;28;20037;-70
2022/04/25 00:36:48;;;;;;;24.27;13.30;;;;;;;;;;5038322;28;20064;-70
2022/04/25 00:39:14;;;;;;;24.48;13.93;;;;;;;;;;5048469;28;20404;-70
2022/04/25 00:41:40;;;;;;;26.10;13.52;;;;;;;;;;5048700;28;20041;-69
2022/04/25 00:44:06;;;;;;;25.13;14.10;;;;;;;;;;5060274;28;20041;-70
2022/04/25 00:46:32;;;;;;;22.92;14.00;;;;;;;;;;5058433;28;20047;-69
2022/04/25 00:48:58;;;;;;;24.33;13.05;;;;;;;;;;5054111;28;20040;-70
2022/04/25 00:51:26;;;;;;;22.65;13.88;;;;;;;;;;5047531;28;20041;-70
2022/04/25 00:53:53;;;;;;;26.75;14.55;;;;;;;;;;5048612;28;20199;-70
2022/04/25 00:56:19;;;;;;;26.60;14.63;;;;;;;;;;5047853;28;20049;-69
2022/04/25 00:58:46;;;;;;;24.33;14.48;;;;;;;;;;5048048;28;20429;-69
2022/04/25 01:01:13;;;;;;;22.75;13.82;;;;;;;;;;5056598;28;20045;-70
2022/04/25 01:03:38;;;;;;;24.58;14.18;;;;;;;;;;5050015;28;20041;-70
2022/04/25 01:06:04;;;;;;;21.50;13.80;;;;;;;;;;5047548;28;20071;-70
2022/04/25 01:08:34;;;;;;;25.52;15.07;;;;;;;;;;5048208;28;20069;-71
2022/04/25 01:11:01;;;;;;;27.98;16.38;;;;;;;;;;5029766;28;20045;-70
2022/04/25 01:13:27;;;;;;;24.83;14.77;;;;;;;;;;5030760;28;20056;-70
2022/04/25 01:15:53;;;;;;;24.88;15.48;;;;;;;;;;5048772;28;20115;-70
2022/04/25 01:18:19;;;;;;;28.08;15.43;;;;;;;;;;5048531;28;20131;-70
2022/04/25 01:20:45;;;;;;;23.48;14.85;;;;;;;;;;5063561;28;20513;-71
2022/04/25 01:28:43;;;;;;;27.73;13.95;;;;;;;;;;5047277;28;20045;-69
2022/04/25 01:31:09;;;;;;;33.30;15.75;;;;;;;;;;5047872;28;20049;-69
2022/04/25 01:33:35;;;;;;;30.73;15.27;;;;;;;;;;5045432;28;20105;-69
2022/04/25 01:36:02;;;;;;;29.95;14.95;;;;;;;;;;5047824;28;20412;-69
2022/04/25 01:38:28;;;;;;;27.42;15.43;;;;;;;;;;5029181;28;20075;-68
2022/04/25 01:40:56;;;;;;;29.83;15.75;;;;;;;;;;5032399;28;20053;-69
2022/04/25 01:43:21;;;;;;;25.30;14.70;;;;;;;;;;5033874;28;20055;-70
2022/04/25 01:45:47;;;;;;;29.50;15.60;;;;;;;;;;5048746;28;20044;-70
2022/04/25 01:48:13;;;;;;;27.40;15.52;;;;;;;;;;5035464;28;20491;-70
2022/04/25 01:50:39;;;;;;;26.80;15.18;;;;;;;;;;5051617;28;20127;-69
2022/04/25 01:53:05;;;;;;;24.45;14.25;;;;;;;;;;5070869;28;20440;-69
2022/04/25 01:55:31;;;;;;;27.80;15.57;;;;;;;;;;5053325;28;20044;-69
2022/04/25 01:57:57;;;;;;;28.73;15.02;;;;;;;;;;5044208;28;20135;-69
2022/04/25 02:00:23;;;;;;;27.45;16.10;;;;;;;;;;5036513;28;20716;-70
2022/04/25 02:02:49;;;;;;;25.13;15.77;;;;;;;;;;5050896;28;20482;-70
2022/04/25 02:05:15;;;;;;;30.63;15.23;;;;;;;;;;5050635;28;20049;-70
2022/04/25 02:07:41;;;;;;;22.95;14.77;;;;;;;;;;5050949;28;20053;-70
2022/04/25 02:10:07;;;;;;;32.25;16.60;;;;;;;;;;5054683;28;20029;-70
2022/04/25 02:12:34;;;;;;;25.48;15.48;;;;;;;;;;5031283;28;20093;-70
2022/04/25 02:15:00;;;;;;;26.98;15.50;;;;;;;;;;5060063;28;20049;-70
2022/04/25 02:17:26;;;;;;;29.30;16.67;;;;;;;;;;5032100;28;20210;-70
2022/04/25 02:19:52;;;;;;;30.88;17.30;;;;;;;;;;5050716;28;20075;-71
2022/04/25 02:22:19;;;;;;;29.27;15.98;;;;;;;;;;5044323;28;20063;-70
2022/04/25 02:24:45;;;;;;;26.60;16.23;;;;;;;;;;5069040;28;20056;-70
2022/04/25 02:27:11;;;;;;;32.40;16.90;;;;;;;;;;5053012;28;20618;-70
2022/04/25 02:29:39;;;;;;;35.33;15.82;;;;;;;;;;5069733;28;20052;-70
2022/04/25 02:32:06;;;;;;;29.35;15.90;;;;;;;;;;5053548;28;20053;-70
2022/04/25 02:34:32;;;;;;;29.38;15.85;;;;;;;;;;5032226;28;20401;-70
2022/04/25 02:36:58;;;;;;;30.27;15.10;;;;;;;;;;5055048;28;20051;-70
2022/04/25 02:39:25;;;;;;;29.10;15.25;;;;;;;;;;5070842;28;20055;-70
2022/04/25 02:41:51;;;;;;;23.83;14.02;;;;;;;;;;5069381;28;20048;-70
2022/04/25 02:44:17;;;;;;;25.35;14.00;;;;;;;;;;5071279;28;20399;-70
2022/04/25 02:46:43;;;;;;;28.10;14.73;;;;;;;;;;5051257;28;20053;-70
2022/04/25 02:49:09;;;;;;;23.30;14.23;;;;;;;;;;5053141;28;20110;-70
2022/04/25 02:51:35;;;;;;;25.52;13.98;;;;;;;;;;5052180;28;20430;-70
2022/04/25 02:54:01;;;;;;;25.88;13.73;;;;;;;;;;5056335;28;20048;-70
2022/04/25 02:56:27;;;;;;;22.67;13.52;;;;;;;;;;5050126;28;20048;-70
2022/04/25 02:58:53;;;;;;;29.90;14.30;;;;;;;;;;5049360;28;20128;-69
2022/04/25 03:01:19;;;;;;;24.40;14.30;;;;;;;;;;5049846;28;20045;-70
2022/04/25 03:03:45;;;;;;;24.70;13.60;;;;;;;;;;5037891;28;20040;-70
2022/04/25 03:06:11;;;;;;;29.08;14.05;;;;;;;;;;5065282;28;20353;-70
2022/04/25 03:08:38;;;;;;;25.90;14.02;;;;;;;;;;5044439;28;20045;-71
2022/04/25 03:11:05;;;;;;;27.48;13.75;;;;;;;;;;5050183;28;20098;-70
2022/04/25 03:13:34;;;;;;;21.35;13.65;;;;;;;;;;5049482;28;20048;-69
2022/04/25 03:16:00;;;;;;;27.63;14.00;;;;;;;;;;5051070;28;20131;-70
2022/04/25 03:18:26;;;;;;;23.60;13.13;;;;;;;;;;5061376;28;20113;-70
2022/04/25 03:20:52;;;;;;;28.63;14.85;;;;;;;;;;5050568;28;20057;-70
2022/04/25 03:23:19;;;;;;;24.58;14.43;;;;;;;;;;5036021;28;20049;-70
2022/04/25 03:25:45;;;;;;;27.33;15.60;;;;;;;;;;5031660;28;20419;-70
2022/04/25 03:28:11;;;;;;;24.42;14.02;;;;;;;;;;5052109;28;20082;-70
2022/04/25 03:30:37;;;;;;;26.13;13.85;;;;;;;;;;5053597;28;20106;-70
2022/04/25 03:33:03;;;;;;;28.38;15.05;;;;;;;;;;5031384;28;20114;-71
2022/04/25 03:35:30;;;;;;;24.25;14.20;;;;;;;;;;5049830;28;20369;-70
2022/04/25 03:37:57;;;;;;;24.60;14.00;;;;;;;;;;5049603;28;20047;-70
2022/04/25 03:40:24;;;;;;;23.17;13.13;;;;;;;;;;5068698;28;20048;-70
2022/04/25 03:42:50;;;;;;;23.65;13.70;;;;;;;;;;5064222;28;20040;-70
2022/04/25 03:45:17;;;;;;;25.75;13.13;;;;;;;;;;5058816;28;20400;-70
2022/04/25 03:47:43;;;;;;;25.08;13.63;;;;;;;;;;5068236;28;20055;-70
2022/04/25 03:50:10;;;;;;;25.83;15.80;;;;;;;;;;5051385;28;20049;-70
2022/04/25 03:52:36;;;;;;;26.45;14.65;;;;;;;;;;5068319;28;20055;-70
2022/04/25 03:57:51;;;;;;;30.30;14.13;;;;;;;;;;5069739;28;20476;-70
2022/04/25 04:00:17;;;;;;;31.80;16.20;;;;;;;;;;5069500;28;20072;-70
2022/04/25 04:02:43;;;;;;;31.33;14.90;;;;;;;;;;5049247;28;20083;-70
2022/04/25 04:05:10;;;;;;;31.40;14.50;;;;;;;;;;5053903;28;20488;-70
2022/04/25 04:07:36;;;;;;;23.10;13.43;;;;;;;;;;5048375;28;20103;-69
2022/04/25 04:10:02;;;;;;;25.60;14.05;;;;;;;;;;5061267;28;20041;-70
2022/04/25 04:12:31;;;;;;;23.00;13.27;;;;;;;;;;5041246;28;20055;-69
2022/04/25 04:15:02;;;;;;;28.25;14.02;;;;;;;;;;5035090;28;20149;-70
2022/04/25 04:17:28;;;;;;;28.48;14.57;;;;;;;;;;5069060;28;20052;-70
2022/04/25 04:19:54;;;;;;;29.65;13.82;;;;;;;;;;5059701;28;20053;-70
2022/04/25 04:22:29;;;;;;;32.75;13.80;;;;;;;;;;5060845;28;20071;-70
2022/04/25 04:25:06;;;;;;;26.20;15.25;;;;;;;;;;5040518;28;20491;-70
2022/04/25 04:27:32;;;;;;;26.70;14.05;;;;;;;;;;5050620;28;20044;-69
2022/04/25 04:30:04;;;;;;;37.67;15.98;;;;;;;;;;5058699;28;20048;-70
2022/04/25 04:32:30;;;;;;;29.55;14.75;;;;;;;;;;5066005;28;20114;-70
2022/04/25 04:34:57;;;;;;;35.65;14.45;;;;;;;;;;5060821;28;20503;-70
2022/04/25 04:37:23;;;;;;;28.52;15.10;;;;;;;;;;5058707;28;20044;-70
2022/04/25 04:39:49;;;;;;;32.47;16.02;;;;;;;;;;5051256;28;20052;-70
2022/04/25 04:42:15;;;;;;;27.30;13.02;;;;;;;;;;5047917;28;20051;-70
2022/04/25 04:44:43;;;;;;;27.27;13.48;;;;;;;;;;5040737;28;20051;-70
2022/04/25 04:47:09;;;;;;;28.40;14.52;;;;;;;;;;5068654;28;20049;-70
2022/04/25 04:49:35;;;;;;;25.40;13.75;;;;;;;;;;5052382;28;20036;-70
2022/04/25 04:52:02;;;;;;;40.17;15.38;;;;;;;;;;5052481;28;20046;-70
2022/04/25 04:54:28;;;;;;;25.80;12.82;;;;;;;;;;5046958;28;20044;-69
2022/04/25 04:56:54;;;;;;;27.38;13.80;;;;;;;;;;5047818;28;20495;-70
2022/04/25 04:59:20;;;;;;;38.53;15.40;;;;;;;;;;5059298;28;20119;-70
2022/04/25 05:01:46;;;;;;;27.27;13.30;;;;;;;;;;5065617;28;20048;-70
2022/04/25 05:04:12;;;;;;;31.80;13.70;;;;;;;;;;5058378;28;20049;-70
2022/04/25 05:06:38;;;;;;;26.75;13.93;;;;;;;;;;5054909;28;20049;-70
2022/04/25 05:09:04;;;;;;;38.05;14.10;;;;;;;;;;5050165;28;20047;-70
2022/04/25 05:11:30;;;;;;;23.67;12.13;;;;;;;;;;5047174;28;20045;-70
2022/04/25 05:13:56;;;;;;;27.90;13.20;;;;;;;;;;5062758;28;20053;-70
2022/04/25 05:16:22;;;;;;;24.00;12.27;;;;;;;;;;5055328;28;20102;-69
2022/04/25 05:18:48;;;;;;;21.83;11.32;;;;;;;;;;5052422;28;20063;-70
2022/04/25 05:21:14;;;;;;;23.95;12.20;;;;;;;;;;5069021;28;20142;-70
2022/04/25 05:23:42;;;;;;;23.65;13.05;;;;;;;;;;5070817;28;20051;-70
2022/04/25 05:26:08;;;;;;;24.67;11.93;;;;;;;;;;5049746;28;20503;-70
2022/04/25 05:28:34;;;;;;;22.30;11.88;;;;;;;;;;5059427;28;20221;-70
2022/04/25 05:31:00;;;;;;;24.25;12.05;;;;;;;;;;5033201;28;20049;-70
2022/04/25 05:33:26;;;;;;;20.60;11.40;;;;;;;;;;5052136;28;20045;-70
2022/04/25 05:35:52;;;;;;;24.45;11.05;;;;;;;;;;5051483;28;20052;-70
2022/04/25 05:38:19;;;;;;;25.27;11.18;;;;;;;;;;5063141;28;20436;-70
2022/04/25 05:40:45;;;;;;;19.42;10.90;;;;;;;;;;5037734;28;20416;-69
2022/04/25 05:43:11;;;;;;;17.55;9.80;;;;;;;;;;5051322;28;20095;-70
2022/04/25 05:45:37;;;;;;;23.33;11.23;;;;;;;;;;5063907;28;20045;-69
2022/04/25 05:51:58;;;;;;;19.30;10.63;;;;;;;;;;5060461;28;20557;-70
2022/04/25 05:53:36;;;;;;;23.23;11.57;;;;;;;;;;5058701;28;20052;-70
2022/04/25 05:56:02;;;;;;;29.05;11.82;;;;;;;;;;5035177;28;20131;-70
2022/04/25 05:58:28;;;;;;;21.88;11.05;;;;;;;;;;5061252;28;20049;-69
2022/04/25 06:00:54;;;;;;;23.58;10.60;;;;;;;;;;5053085;28;20396;-70
2022/04/25 06:03:20;;;;;;;21.40;11.30;;;;;;;;;;5070475;28;20080;-70
2022/04/25 06:05:46;;;;;;;19.58;9.70;;;;;;;;;;5070545;28;20044;-69
2022/04/25 06:08:13;;;;;;;25.92;12.20;;;;;;;;;;5051497;28;20515;-70
2022/04/25 06:10:40;;;;;;;25.42;12.98;;;;;;;;;;5049580;28;20089;-70
2022/04/25 06:13:07;;;;;;;21.17;11.82;;;;;;;;;;5050511;28;20084;-70
2022/04/25 06:15:33;;;;;;;26.58;11.35;;;;;;;;;;5044022;28;20092;-69
2022/04/25 06:17:59;;;;;;;37.17;14.20;;;;;;;;;;5070066;28;20518;-70
2022/04/25 06:20:30;;;;;;;23.60;11.52;;;;;;;;;;5070709;28;20044;-70
2022/04/25 06:22:57;;;;;;;25.52;11.60;;;;;;;;;;5066643;28;20105;-70
2022/04/25 06:25:24;;;;;;;17.88;10.95;;;;;;;;;;5050286;28;20183;-69
2022/04/25 06:27:50;;;;;;;21.88;11.23;;;;;;;;;;5037156;28;20069;-70
2022/04/25 06:30:16;;;;;;;22.85;11.82;;;;;;;;;;5032861;28;20056;-70
2022/04/25 06:32:42;;;;;;;27.70;12.18;;;;;;;;;;5048028;28;20113;-69
2022/04/25 06:35:09;;;;;;;27.80;13.77;;;;;;;;;;5051701;28;20044;-70
2022/04/25 06:37:35;;;;;;;21.65;11.10;;;;;;;;;;5067365;28;20054;-69
2022/04/25 06:40:01;;;;;;;31.95;13.32;;;;;;;;;;5071001;28;20132;-69
2022/04/25 06:42:27;;;;;;;21.23;12.02;;;;;;;;;;5065071;28;20051;-70
2022/04/25 06:44:53;;;;;;;23.80;13.15;;;;;;;;;;5061325;28;20055;-70
2022/04/25 06:47:19;;;;;;;23.95;13.15;;;;;;;;;;5068719;28;20063;-69
2022/04/25 06:49:44;;;;;;;26.48;13.38;;;;;;;;;;5065501;28;20048;-70
2022/04/25 06:52:10;;;;;;;22.50;12.20;;;;;;;;;;5052008;28;20048;-69
2022/04/25 06:54:37;;;;;;;26.70;12.80;;;;;;;;;;5042487;28;20791;-69
2022/04/25 06:57:03;;;;;;;30.13;14.15;;;;;;;;;;5035663;28;20044;-70
2022/04/25 06:59:29;;;;;;;29.25;13.52;;;;;;;;;;5031580;28;20041;-70
2022/04/25 07:01:55;;;;;;;20.33;12.52;;;;;;;;;;5055292;28;20072;-69
2022/04/25 07:04:21;;;;;;;39.20;15.20;;;;;;;;;;5052452;28;20059;-70
2022/04/25 07:06:48;;;;;;;23.85;13.32;;;;;;;;;;5063446;28;20446;-69
2022/04/25 07:09:14;;;;;;;20.10;12.13;;;;;;;;;;5063865;28;20052;-69
2022/04/25 07:11:44;;;;;;;25.60;14.52;;;;;;;;;;5050774;28;20041;-70
2022/04/25 07:14:14;;;;;;;23.00;12.82;;;;;;;;;;5052615;28;20194;-70
2022/04/25 07:16:40;;;;;;;24.92;13.23;;;;;;;;;;5050463;28;20080;-70
2022/04/25 07:19:06;;;;;;;24.02;13.38;;;;;;;;;;5065009;28;20119;-70
2022/04/25 07:29:48;;;;;;;29.08;15.18;;;;;;;;;;5069446;28;20048;-70
2022/04/25 07:32:18;;;;;;;27.92;15.00;;;;;;;;;;5051615;28;20094;-69
2022/04/25 07:34:47;;;;;;;31.25;16.25;;;;;;;;;;5030180;28;20118;-70
2022/04/25 07:37:13;;;;;;;39.40;17.00;;;;;;;;;;5047310;28;20451;-70
2022/04/25 07:39:39;;;;;;;30.15;15.70;;;;;;;;;;5049314;28;20060;-70
2022/04/25 07:42:05;;;;;;;42.10;18.17;;;;;;;;;;5060649;28;20051;-70
2022/04/25 07:44:31;;;;;;;38.85;18.13;;;;;;;;;;5037647;28;20081;-70
2022/04/25 07:46:59;;;;;;;35.70;16.35;;;;;;;;;;5042828;28;20040;-70
2022/04/25 07:49:25;;;;;;;32.33;16.60;;;;;;;;;;5050474;28;20067;-70
2022/04/25 07:51:51;;;;;;;28.17;16.00;;;;;;;;;;5038264;28;20397;-70
2022/04/25 07:54:19;;;;;;;31.42;15.85;;;;;;;;;;5031620;28;20183;-70
2022/04/25 07:56:45;;;;;;;32.17;15.10;;;;;;;;;;5030483;28;20059;-70
2022/04/25 07:59:11;;;;;;;36.17;16.65;;;;;;;;;;5058128;28;20407;-69
2022/04/25 08:01:37;;;;;;;30.67;16.42;;;;;;;;;;5040178;28;20475;-70
2022/04/25 08:04:03;;;;;;;31.55;15.63;;;;;;;;;;5058228;28;20080;-70
2022/04/25 08:06:29;;;;;;;30.13;15.15;;;;;;;;;;5059425;28;20416;-70
2022/04/25 08:08:56;;;;;;;27.25;15.30;;;;;;;;;;5061866;28;20484;-70
2022/04/25 08:11:22;;;;;;;34.13;15.85;;;;;;;;;;5058177;28;20052;-70
2022/04/25 08:19:20;;;;;;;29.17;15.57;;;;;;;;;;5040913;28;20052;-70
2022/04/25 08:21:46;;;;;;;23.83;15.13;;;;;;;;;;5040408;28;20053;-70
2022/04/25 08:24:13;;;;;;;30.08;16.00;;;;;;;;;;5059725;28;20048;-70
2022/04/25 08:26:39;;;;;;;30.08;15.23;;;;;;;;;;5057336;28;20037;-69
2022/04/25 08:29:05;;;;;;;27.50;15.27;;;;;;;;;;5056534;28;20056;-70
2022/04/25 08:31:32;;;;;;;31.60;15.85;;;;;;;;;;5059020;28;20098;-70
2022/04/25 08:33:58;;;;;;;27.60;14.98;;;;;;;;;;5056765;28;20036;-70
2022/04/25 08:36:25;;;;;;;23.90;14.20;;;;;;;;;;5061623;28;20060;-70
2022/04/25 08:38:51;;;;;;;27.90;15.63;;;;;;;;;;5048834;28;20049;-70
2022/04/25 08:41:21;;;;;;;34.38;14.98;;;;;;;;;;5048020;28;20049;-70
2022/04/25 08:43:51;;;;;;;24.58;13.43;;;;;;;;;;5030556;28;20059;-69
2022/04/25 08:46:17;;;;;;;37.45;16.30;;;;;;;;;;5047914;28;20048;-69
2022/04/25 08:48:44;;;;;;;26.55;13.63;;;;;;;;;;5065645;28;20059;-70
2022/04/25 08:51:11;;;;;;;26.95;12.95;;;;;;;;;;5065554;28;20127;-70
2022/04/25 08:53:39;;;;;;;22.67;12.70;;;;;;;;;;5059976;28;20423;-70
2022/04/25 08:56:07;;;;;;;29.60;13.87;;;;;;;;;;5047260;28;20400;-70
2022/04/25 08:58:36;;;;;;;27.48;12.95;;;;;;;;;;5029710;28;20480;-70
2022/04/25 09:01:02;;;;;;;25.20;13.50;;;;;;;;;;5049040;28;20443;-70
2022/04/25 09:03:28;;;;;;;31.42;14.45;;;;;;;;;;5064180;28;20198;-70
2022/04/25 09:05:55;;;;;;;23.48;12.77;;;;;;;;;;5030586;28;20416;-70
2022/04/25 09:08:21;;;;;;;21.55;12.57;;;;;;;;;;5049539;28;20059;-70
2022/04/25 09:10:48;;;;;;;28.77;14.65;;;;;;;;;;5046803;28;20033;-70
2022/04/25 09:13:14;;;;;;;24.00;13.90;;;;;;;;;;5047792;28;20464;-70
2022/04/25 09:15:41;;;;;;;28.85;12.90;;;;;;;;;;5041090;28;20368;-70
2022/04/25 09:18:07;;;;;;;25.25;13.02;;;;;;;;;;5049913;28;20041;-70
2022/04/25 09:20:34;;;;;;;21.35;12.88;;;;;;;;;;5058631;28;20109;-70
2022/04/25 09:23:00;;;;;;;24.75;13.10;;;;;;;;;;5059940;28;20041;-70
2022/04/25 09:25:26;;;;;;;21.98;12.00;;;;;;;;;;5047978;28;20095;-70
2022/04/25 09:28:09;;;;;;;21.05;12.00;;;;;;;;;;5047524;28;20056;-71
2022/04/25 09:30:35;;;;;;;21.95;11.05;;;;;;;;;;5049084;28;20067;-69
2022/04/25 09:33:01;;;;;;;18.70;11.20;;;;;;;;;;5065039;28;20116;-70
2022/04/25 09:35:37;;;;;;;19.08;11.60;;;;;;;;;;5067361;28;20127;-70
2022/04/25 09:38:04;;;;;;;19.77;11.18;;;;;;;;;;5068313;28;20460;-70
2022/04/25 09:40:32;;;;;;;20.17;11.10;;;;;;;;;;5047479;28;20412;-69
2022/04/25 09:43:17;;;;;;;25.10;12.23;;;;;;;;;;5063647;28;20083;-70
2022/04/25 09:45:44;;;;;;;19.05;11.55;;;;;;;;;;5047932;28;20077;-71
2022/04/25 09:48:17;;;;;;;24.05;11.60;;;;;;;;;;5029586;28;20048;-70
2022/04/25 09:50:44;;;;;;;18.77;11.02;;;;;;;;;;5032588;28;20048;-70
2022/04/25 09:53:11;;;;;;;18.77;11.10;;;;;;;;;;5048589;28;20059;-71
2022/04/25 09:55:38;;;;;;;20.80;10.43;;;;;;;;;;5047174;28;20136;-71
2022/04/25 09:58:39;;;;;;;19.75;11.02;;;;;;;;;;5034900;28;20082;-71
2022/04/25 10:01:11;;;;;;;17.50;10.50;;;;;;;;;;5031121;28;20075;-70
2022/04/25 10:03:37;;;;;;;17.35;9.63;;;;;;;;;;5052328;28;20166;-69
2022/04/25 10:06:04;;;;;;;20.67;11.63;;;;;;;;;;5052925;28;20045;-70
2022/04/25 10:08:31;;;;;;;22.00;10.75;;;;;;;;;;5050628;28;20450;-70
2022/04/25 10:10:58;;;;;;;21.45;12.68;;;;;;;;;;5034826;28;20056;-70
2022/04/25 10:13:25;;;;;;;17.45;10.65;;;;;;;;;;5070144;28;20056;-69
2022/04/25 10:15:51;;;;;;;24.00;12.27;;;;;;;;;;5067157;28;20052;-69
2022/04/25 10:18:18;;;;;;;20.60;12.60;;;;;;;;;;5050466;28;20041;-70
2022/04/25 10:20:46;;;;;;;20.00;12.10;;;;;;;;;;5050340;28;20047;-69
2022/04/25 10:23:12;;;;;;;19.33;12.05;;;;;;;;;;5050270;28;20127;-69
2022/04/25 10:25:40;;;;;;;45.53;17.20;;;;;;;;;;5032803;28;20045;-70
2022/04/25 10:28:07;;;;;;;24.10;14.03;;;;;;;;;;5032757;28;20065;-70
2022/04/25 10:30:34;;;;;;;21.42;13.40;;;;;;;;;;5045849;28;20056;-69
2022/04/25 10:33:22;;;;;;;22.60;14.25;;;;;;;;;;5043714;28;20487;-69
2022/04/25 10:35:50;;;;;;;22.60;13.40;;;;;;;;;;5055299;28;20131;-70
2022/04/25 10:38:47;;;;;;;28.50;13.80;;;;;;;;;;5056219;28;20051;-70
2022/04/25 10:44:19;;;;;;;17.65;12.65;;;;;;;;;;5051465;28;20056;-70
2022/04/25 10:46:46;;;;;;;;;;;;;;;;;;5052809;28;20064;-70
2022/04/25 10:49:12;;;;;;;15.80;11.15;;;;;;;;;;5050147;28;20395;-70
2022/04/25 10:51:38;;;;;;;16.70;11.55;;;;;;;;;;5050796;28;20407;-70
2022/04/25 10:54:05;;;;;;;22.33;12.27;;;;;;;;;;5032731;28;20483;-70
2022/04/25 10:56:32;;;;;;;22.48;12.63;;;;;;;;;;5049843;28;20120;-71
2022/04/25 10:59:17;;;;;;;26.08;13.27;;;;;;;;;;5057093;28;20064;-69
2022/04/25 11:01:46;;;;;;;29.00;13.23;;;;;;;;;;5056983;28;20403;-68
2022/04/25 11:04:12;;;;;;;;;;;;;;;;;;5060830;28;20032;-69
2022/04/25 11:06:38;;;;;;;19.70;10.75;;;;;;;;;;5059104;28;19931;-69
2022/04/25 11:09:05;;;;;;;20.30;10.77;;;;;;;;;;5051977;28;20228;-69
2022/04/25 11:11:46;;;;;;;15.70;9.60;;;;;;;;;;5047872;28;20048;-70
2022/04/25 11:14:13;;;;;;;14.77;9.40;;;;;;;;;;5049113;28;20053;-70
2022/04/25 11:16:39;;;;;;;17.02;9.70;;;;;;;;;;5070384;28;20107;-70
2022/04/25 11:19:07;;;;;;;22.35;11.15;;;;;;;;;;5065117;28;20053;-70
2022/04/25 11:21:33;;;;;;;15.75;9.63;;;;;;;;;;5059535;28;20510;-70
2022/04/25 11:24:01;;;;;;;25.38;11.13;;;;;;;;;;5059188;28;20384;-69
2022/04/25 11:26:29;;;;;;;15.27;9.20;;;;;;;;;;5058257;28;20593;-70
2022/04/25 11:28:55;;;;;;;17.02;9.95;;;;;;;;;;5057830;28;20115;-70
2022/04/25 11:31:22;;;;;;;13.27;8.50;;;;;;;;;;5058090;28;20045;-70
2022/04/25 11:33:48;;;;;;;16.42;9.32;;;;;;;;;;5061337;28;20040;-70
2022/04/25 11:36:15;;;;;;;17.27;9.18;;;;;;;;;;5067638;28;20441;-70
2022/04/25 11:41:28;;;;;;;15.63;8.40;;;;;;;;;;5062082;28;20084;-70
2022/04/25 11:43:53;;;;;;;21.15;10.98;;;;;;;;;;5056484;28;20514;-70
2022/04/25 11:46:20;;;;;;;15.18;8.80;;;;;;;;;;5048944;28;20128;-70
2022/04/25 11:48:49;;;;;;;16.10;8.82;;;;;;;;;;5060669;28;20044;-70
2022/04/25 11:51:25;;;;;;;15.93;8.80;;;;;;;;;;5064205;28;20079;-70
2022/04/25 11:53:57;;;;;;;20.15;9.55;;;;;;;;;;5058775;28;20052;-70
2022/04/25 11:56:23;;;;;;;22.83;9.90;;;;;;;;;;5047875;28;20044;-70
2022/04/25 11:58:49;;;;;;;19.90;9.55;;;;;;;;;;5051026;28;20483;-70
2022/04/25 12:01:35;;;;;;;14.40;9.18;;;;;;;;;;5037069;28;20059;-70
2022/04/25 12:04:18;;;;;;;19.67;9.82;;;;;;;;;;5053379;28;20049;-70
2022/04/25 12:06:48;;;;;;;21.38;10.88;;;;;;;;;;5041937;28;20045;-70
2022/04/25 12:17:38;;;;;;;20.20;11.13;;;;;;;;;;5069062;28;20044;-71
2022/04/25 12:20:05;;;;;;;20.23;10.40;;;;;;;;;;5041420;28;20080;-70
2022/04/25 12:22:32;;;;;;;16.85;10.57;;;;;;;;;;5056491;28;20374;-70
2022/04/25 12:25:10;;;;;;;16.40;10.95;;;;;;;;;;5047960;28;20069;-70
2022/04/25 12:27:36;;;;;;;26.55;11.98;;;;;;;;;;5048105;28;20048;-71
2022/04/25 12:30:07;;;;;;;14.95;10.27;;;;;;;;;;5048106;28;20060;-70
2022/04/25 12:32:33;;;;;;;18.83;11.32;;;;;;;;;;5059860;28;20037;-70
2022/04/25 12:34:59;;;;;;;14.63;10.60;;;;;;;;;;5066921;28;20052;-70
2022/04/25 12:37:25;;;;;;;16.73;11.20;;;;;;;;;;5059150;28;20041;-70
2022/04/25 12:40:01;;;;;;;19.10;11.82;;;;;;;;;;5068190;28;20093;-70
2022/04/25 12:42:52;;;;;;;14.30;10.75;;;;;;;;;;5067052;28;20399;-70
2022/04/25 12:45:18;;;;;;;18.30;11.40;;;;;;;;;;5067619;28;20045;-70
2022/04/25 12:47:53;;;;;;;15.95;10.32;;;;;;;;;;5045349;28;20447;-70
2022/04/25 12:50:39;;;;;;;23.95;12.02;;;;;;;;;;5068321;28;20097;-70
2022/04/25 12:53:06;;;;;;;14.70;10.65;;;;;;;;;;5063386;28;20585;-70
2022/04/25 12:55:45;;;;;;;18.83;10.88;;;;;;;;;;5048630;28;20491;-70
2022/04/25 12:58:11;;;;;;;24.52;12.43;;;;;;;;;;5065526;28;20334;-71
2022/04/25 13:00:44;;;;;;;17.00;11.38;;;;;;;;;;5064564;28;20052;-70
2022/04/25 13:03:11;;;;;;;23.55;11.98;;;;;;;;;;5066874;28;20051;-70
2022/04/25 13:05:38;;;;;;;22.45;12.23;;;;;;;;;;5054724;28;20107;-71
2022/04/25 13:08:04;;;;;;;19.10;11.85;;;;;;;;;;5030523;28;20060;-70
2022/04/25 13:10:30;;;;;;;24.30;12.63;;;;;;;;;;5031325;28;20398;-70
2022/04/25 13:12:57;;;;;;;25.30;13.65;;;;;;;;;;5048428;28;20041;-70
2022/04/25 13:15:29;;;;;;;24.85;12.70;;;;;;;;;;5056051;28;20045;-70
2022/04/25 13:17:55;;;;;;;30.15;13.48;;;;;;;;;;5048417;28;20052;-70
2022/04/25 13:20:21;;;;;;;20.15;12.57;;;;;;;;;;5047296;28;20429;-70
2022/04/25 13:22:48;;;;;;;18.83;12.43;;;;;;;;;;5047461;28;20045;-70
2022/04/25 13:25:15;;;;;;;18.45;13.15;;;;;;;;;;5061301;28;20044;-70
2022/04/25 13:27:41;;;;;;;17.25;13.02;;;;;;;;;;5041081;28;20057;-70
2022/04/25 13:30:08;;;;;;;23.92;13.80;;;;;;;;;;5022304;28;20048;-71
2022/04/25 13:32:34;;;;;;;18.58;12.27;;;;;;;;;;5048139;28;20392;-71
2022/04/25 13:35:01;;;;;;;35.38;15.77;;;;;;;;;;5053388;28;20045;-70
2022/04/25 13:37:31;;;;;;;19.50;14.00;;;;;;;;;;5051148;28;20037;-70
2022/04/25 13:39:57;;;;;;;20.90;13.55;;;;;;;;;;5033565;28;20450;-70
2022/04/25 13:42:23;;;;;;;19.00;12.57;;;;;;;;;;5051134;28;20477;-70
2022/04/25 13:44:49;;;;;;;28.20;14.30;;;;;;;;;;5033738;28;20099;-70
2022/04/25 13:47:15;;;;;;;68.35;22.80;;;;;;;;;;5062052;28;20484;-70
2022/04/25 13:49:41;;;;;;;28.27;16.00;;;;;;;;;;5052068;28;20442;-70
2022/04/25 13:52:07;;;;;;;37.08;16.70;;;;;;;;;;5071573;28;20040;-70
2022/04/25 13:54:33;;;;;;;47.25;18.52;;;;;;;;;;5060822;28;20052;-71
2022/04/25 13:56:59;;;;;;;22.45;15.63;;;;;;;;;;5033158;28;20155;-70
2022/04/25 13:59:26;;;;;;;22.90;14.82;;;;;;;;;;5056057;28;20045;-70
2022/04/25 14:01:51;;;;;;;27.85;15.60;;;;;;;;;;5040744;28;20048;-70
2022/04/25 14:04:17;;;;;;;25.70;15.40;;;;;;;;;;5043201;28;20049;-70
2022/04/25 14:06:44;;;;;;;21.35;13.73;;;;;;;;;;5032878;28;20132;-70
2022/04/25 14:09:10;;;;;;;60.75;22.77;;;;;;;;;;5042677;28;20051;-70
2022/04/25 14:11:36;;;;;;;38.97;18.52;;;;;;;;;;5051056;28;20045;-70
2022/04/25 14:14:02;;;;;;;30.00;16.67;;;;;;;;;;5050932;28;20051;-70
2022/04/25 14:16:28;;;;;;;33.63;16.63;;;;;;;;;;5032603;28;20084;-70
2022/04/25 14:18:54;;;;;;;27.52;16.08;;;;;;;;;;5054975;28;20502;-70
2022/04/25 14:21:21;;;;;;;46.80;19.08;;;;;;;;;;5049963;28;20566;-69
2022/04/25 14:23:47;;;;;;;29.70;16.27;;;;;;;;;;5051047;28;20124;-70
2022/04/25 14:26:13;;;;;;;20.92;15.27;;;;;;;;;;5054570;28;20085;-71
2022/04/25 14:28:39;;;;;;;33.88;16.58;;;;;;;;;;5066494;28;20063;-70
2022/04/25 14:31:06;;;;;;;23.27;15.60;;;;;;;;;;5048026;28;20088;-70
2022/04/25 14:33:32;;;;;;;23.73;15.95;;;;;;;;;;5063654;28;20071;-70
2022/04/25 14:35:58;;;;;;;27.70;16.67;;;;;;;;;;5052514;28;20154;-70
2022/04/25 14:38:25;;;;;;;26.33;16.30;;;;;;;;;;5038429;28;20558;-70
2022/04/25 14:40:52;;;;;;;26.52;16.80;;;;;;;;;;5051925;28;20056;-70
2022/04/25 14:43:18;;;;;;;20.95;14.93;;;;;;;;;;5049425;28;20102;-70
2022/04/25 14:45:44;;;;;;;30.08;15.90;;;;;;;;;;5060180;28;20124;-70
2022/04/25 14:48:10;;;;;;;23.00;15.57;;;;;;;;;;5056768;28;20059;-70
2022/04/25 14:56:07;;;;;;;25.67;15.63;;;;;;;;;;5062047;28;20060;-71
2022/04/25 14:58:33;;;;;;;23.35;15.00;;;;;;;;;;5070036;28;20483;-70
2022/04/25 15:01:00;;;;;;;23.73;16.30;;;;;;;;;;5063233;28;20041;-70
2022/04/25 15:03:26;;;;;;;27.70;16.60;;;;;;;;;;5031325;28;20333;-70